createdAt,value
2022-08-07T00:00:25.341Z,18.90
2022-08-07T00:02:53.540Z,18.90
2022-08-07T00:05:20.983Z,18.80
2022-08-07T00:07:58.289Z,18.90
2022-08-07T00:10:29.703Z,18.80
2022-08-07T00:13:03.234Z,18.80
2022-08-07T00:15:46.431Z,18.80
2022-08-07T00:18:19.492Z,18.60
2022-08-07T00:20:49.420Z,18.50
2022-08-07T00:23:17.125Z,18.70
2022-08-07T00:25:45.868Z,18.60
2022-08-07T00:28:25.634Z,18.50
2022-08-07T00:31:12.706Z,18.50
2022-08-07T00:33:43.629Z,18.50
2022-08-07T00:36:14.141Z,18.50
2022-08-07T00:38:40.816Z,18.50
2022-08-07T00:41:09.935Z,18.40
2022-08-07T00:44:01.217Z,18.30
2022-08-07T00:46:27.745Z,18.30
2022-08-07T00:48:54.339Z,18.50
2022-08-07T00:51:21.096Z,18.50
2022-08-07T00:53:50.294Z,18.30
2022-08-07T00:56:18.236Z,18.30
2022-08-07T00:58:47.020Z,18.10
2022-08-07T01:01:16.742Z,17.80
2022-08-07T01:03:55.955Z,18.00
2022-08-07T01:06:30.004Z,18.10
2022-08-07T01:08:59.364Z,18.00
2022-08-07T01:12:10.211Z,17.90
2022-08-07T01:14:21.139Z,17.80
2022-08-07T01:16:55.176Z,17.70
2022-08-07T01:19:22.744Z,17.50
2022-08-07T01:21:55.420Z,17.10
2022-08-07T01:24:27.803Z,17.30
2022-08-07T01:26:57.482Z,17.40
2022-08-07T01:29:31.391Z,17.30
2022-08-07T01:32:01.474Z,17.40
2022-08-07T01:34:32.986Z,17.40
2022-08-07T01:37:09.761Z,17.10
2022-08-07T01:39:41.322Z,17.10
2022-08-07T01:42:37.646Z,17.30
2022-08-07T01:45:09.742Z,17.40
2022-08-07T01:48:18.426Z,16.80
2022-08-07T01:50:31.192Z,17.20
2022-08-07T01:52:59.450Z,17.40
2022-08-07T01:55:29.035Z,17.40
2022-08-07T01:58:05.988Z,17.30
2022-08-07T02:00:49.226Z,17.40
2022-08-07T02:03:24.986Z,17.30
2022-08-07T02:05:59.949Z,17.20
2022-08-07T02:08:35.426Z,17.30
2022-08-07T02:11:03.730Z,17.10
2022-08-07T02:13:56.646Z,17.00
2022-08-07T02:16:28.746Z,17.20
2022-08-07T02:20:06.495Z,17.20
2022-08-07T02:21:57.042Z,17.10
2022-08-07T02:24:29.540Z,17.00
2022-08-07T02:27:01.281Z,16.70
2022-08-07T02:29:29.102Z,17.00
2022-08-07T02:31:57.411Z,17.10
2022-08-07T02:34:26.703Z,17.00
2022-08-07T02:36:55.823Z,17.00
2022-08-07T02:39:43.838Z,17.00
2022-08-07T02:42:14.744Z,16.90
2022-08-07T02:44:48.339Z,16.90
2022-08-07T02:47:19.170Z,16.80
2022-08-07T02:49:55.923Z,16.90
2022-08-07T02:52:54.914Z,16.80
2022-08-07T02:56:02.393Z,17.00
2022-08-07T02:58:21.748Z,16.90
2022-08-07T03:00:51.789Z,16.80
2022-08-07T03:03:22.584Z,16.50
2022-08-07T03:05:54.564Z,16.60
2022-08-07T03:08:26.777Z,16.40
2022-08-07T03:10:56.130Z,16.60
2022-08-07T03:13:29.272Z,16.60
2022-08-07T03:16:06.258Z,16.50
2022-08-07T03:18:34.652Z,16.20
2022-08-07T03:21:08.272Z,16.40
2022-08-07T03:24:20.299Z,16.30
2022-08-07T03:26:28.855Z,16.30
2022-08-07T03:28:57.146Z,16.30
2022-08-07T03:31:26.450Z,16.40
2022-08-07T03:34:18.542Z,16.40
2022-08-07T03:36:53.174Z,15.90
2022-08-07T03:39:46.474Z,16.10
2022-08-07T03:42:09.402Z,15.90
2022-08-07T03:44:36.928Z,15.90
2022-08-07T03:47:13.967Z,16.00
2022-08-07T03:49:47.969Z,16.00
2022-08-07T03:52:26.406Z,15.90
2022-08-07T03:55:06.796Z,15.60
2022-08-07T03:58:08.689Z,15.60
2022-08-07T04:00:33.620Z,15.50
2022-08-07T04:03:04.179Z,15.60
2022-08-07T04:05:40.231Z,15.80
2022-08-07T04:08:18.265Z,16.00
2022-08-07T04:10:53.956Z,15.90
2022-08-07T04:13:27.758Z,15.30
2022-08-07T04:15:55.104Z,15.10
2022-08-07T04:18:58.619Z,15.60
2022-08-07T04:21:08.639Z,15.40
2022-08-07T04:23:43.561Z,15.80
2022-08-07T04:26:28.516Z,16.00
2022-08-07T04:28:55.686Z,16.00
2022-08-07T04:31:38.841Z,15.70
2022-08-07T04:34:16.430Z,15.80
2022-08-07T04:36:45.557Z,15.90
2022-08-07T04:39:17.619Z,16.00
2022-08-07T04:41:48.303Z,15.70
2022-08-07T04:44:18.937Z,15.80
2022-08-07T04:47:08.510Z,16.00
2022-08-07T04:50:04.189Z,15.90
2022-08-07T04:52:54.170Z,16.30
2022-08-07T04:58:24.423Z,16.20
2022-08-07T04:58:34.868Z,16.20
2022-08-07T05:01:41.447Z,16.40
2022-08-07T05:04:17.395Z,16.40
2022-08-07T05:07:19.587Z,16.40
2022-08-07T05:10:04.984Z,16.90
2022-08-07T05:12:51.491Z,16.60
2022-08-07T05:15:24.542Z,16.70
2022-08-07T05:18:00.854Z,16.50
2022-08-07T05:20:41.287Z,16.50
2022-08-07T05:23:48.860Z,16.90
2022-08-07T05:26:23.997Z,17.20
2022-08-07T05:29:04.340Z,17.20
2022-08-07T05:31:37.922Z,17.30
2022-08-07T05:34:10.913Z,17.10
2022-08-07T05:36:43.341Z,17.70
2022-08-07T05:40:14.144Z,18.00
2022-08-07T05:42:12.442Z,18.10
2022-08-07T05:44:52.973Z,18.20
2022-08-07T05:47:38.455Z,17.90
2022-08-07T05:50:15.409Z,18.10
2022-08-07T05:52:42.394Z,18.50
2022-08-07T05:55:10.981Z,18.30
2022-08-07T05:57:41.929Z,18.50
2022-08-07T06:00:15.975Z,18.60
2022-08-07T06:02:50.967Z,18.70
2022-08-07T06:05:19.654Z,18.70
2022-08-07T06:08:14.073Z,18.80
2022-08-07T06:10:41.184Z,19.00
2022-08-07T06:13:13.353Z,19.20
2022-08-07T06:15:43.003Z,19.10
2022-08-07T06:18:16.219Z,19.50
2022-08-07T06:20:51.061Z,18.70
2022-08-07T06:24:37.748Z,19.00
2022-08-07T06:26:27.230Z,19.30
2022-08-07T06:29:01.252Z,19.30
2022-08-07T06:31:47.238Z,19.50
2022-08-07T06:34:20.435Z,19.70
2022-08-07T06:36:52.284Z,19.70
2022-08-07T06:40:17.236Z,20.10
2022-08-07T06:42:17.616Z,20.30
2022-08-07T06:45:07.229Z,19.80
2022-08-07T06:47:48.270Z,19.20
2022-08-07T06:50:30.425Z,19.10
2022-08-07T06:52:59.549Z,19.60
2022-08-07T06:56:00.154Z,19.70
2022-08-07T06:58:21.465Z,20.20
2022-08-07T07:00:59.473Z,20.40
2022-08-07T07:03:47.578Z,20.80
2022-08-07T07:06:14.215Z,20.40
2022-08-07T07:08:50.596Z,20.30
2022-08-07T07:12:06.933Z,20.80
2022-08-07T07:14:04.848Z,20.90
2022-08-07T07:16:49.459Z,20.30
2022-08-07T07:19:56.131Z,20.10
2022-08-07T07:22:33.722Z,20.60
2022-08-07T07:25:14.024Z,20.90
2022-08-07T07:28:07.803Z,21.50
2022-08-07T07:30:59.803Z,21.90
2022-08-07T07:33:28.673Z,21.50
2022-08-07T07:36:04.866Z,21.50
2022-08-07T07:38:33.160Z,21.60
2022-08-07T07:41:04.716Z,21.80
2022-08-07T07:44:14.901Z,21.70
2022-08-07T07:46:38.102Z,21.80
2022-08-07T07:50:33.819Z,21.80
2022-08-07T07:52:03.453Z,21.40
2022-08-07T07:54:31.926Z,22.00
2022-08-07T07:57:01.541Z,21.80
2022-08-07T07:59:52.433Z,22.60
2022-08-07T08:02:34.260Z,23.00
2022-08-07T08:05:14.287Z,22.90
2022-08-07T08:07:59.612Z,22.80
2022-08-07T08:10:37.819Z,22.80
2022-08-07T08:13:14.926Z,22.20
2022-08-07T08:15:57.973Z,22.70
2022-08-07T08:18:28.349Z,23.30
2022-08-07T08:20:55.296Z,23.80
2022-08-07T08:23:42.722Z,24.00
2022-08-07T08:26:28.578Z,24.00
2022-08-07T08:28:56.101Z,23.90
2022-08-07T08:31:59.011Z,24.10
2022-08-07T08:34:31.999Z,23.30
2022-08-07T08:36:59.039Z,23.30
2022-08-07T08:39:39.709Z,23.10
2022-08-07T08:42:51.784Z,23.50
2022-08-07T08:45:26.700Z,24.10
2022-08-07T08:48:08.463Z,24.60
2022-08-07T08:51:03.423Z,25.00
2022-08-07T08:53:52.318Z,24.90
2022-08-07T08:56:27.185Z,25.40
2022-08-07T08:59:12.686Z,24.90
2022-08-07T09:01:59.996Z,25.40
2022-08-07T09:04:49.149Z,25.50
2022-08-07T09:07:22.958Z,26.00
2022-08-07T09:09:56.735Z,26.30
2022-08-07T09:12:34.386Z,26.00
2022-08-07T09:16:23.533Z,26.50
2022-08-07T09:18:36.762Z,27.00
2022-08-07T09:21:03.414Z,27.20
2022-08-07T09:24:32.765Z,25.80
2022-08-07T09:26:30.786Z,25.50
2022-08-07T09:30:01.463Z,24.70
2022-08-07T09:32:17.315Z,25.20
2022-08-07T09:36:02.927Z,26.60
2022-08-07T09:38:13.946Z,26.90
2022-08-07T09:40:53.351Z,27.30
2022-08-07T09:44:03.203Z,26.30
2022-08-07T09:47:52.064Z,26.90
2022-08-07T09:50:02.860Z,28.00
2022-08-07T09:52:34.398Z,28.70
2022-08-07T09:55:06.924Z,29.20
2022-08-07T09:58:12.162Z,28.20
2022-08-07T10:00:53.816Z,27.70
2022-08-07T10:04:04.898Z,26.70
2022-08-07T10:06:55.636Z,24.90
2022-08-07T10:09:42.596Z,25.00
2022-08-07T10:12:39.708Z,25.40
2022-08-07T10:15:25.349Z,26.10
2022-08-07T10:18:07.818Z,25.70
2022-08-07T10:20:54.563Z,26.70
2022-08-07T10:24:05.880Z,27.30
2022-08-07T10:26:40.859Z,26.90
2022-08-07T10:29:45.711Z,28.10
2022-08-07T10:32:51.321Z,28.90
2022-08-07T10:35:55.183Z,29.90
2022-08-07T10:38:41.967Z,28.00
2022-08-07T10:41:51.986Z,27.30
2022-08-07T10:44:50.191Z,28.90
2022-08-07T10:47:53.664Z,28.10
2022-08-07T10:50:29.889Z,28.00
2022-08-07T10:53:44.496Z,28.30
2022-08-07T10:56:32.830Z,29.20
2022-08-07T10:59:37.101Z,29.90
2022-08-07T11:02:32.899Z,29.40
2022-08-07T11:05:44.863Z,30.30
2022-08-07T11:08:39.008Z,30.80
2022-08-07T11:11:29.553Z,30.70
2022-08-07T11:14:43.662Z,32.20
2022-08-07T11:17:09.740Z,33.50
2022-08-07T11:19:38.353Z,34.00
2022-08-07T11:22:32.502Z,34.40
2022-08-07T11:25:23.653Z,35.00
2022-08-07T11:28:15.388Z,35.00
2022-08-07T11:30:58.275Z,35.20
2022-08-07T11:33:54.027Z,34.70
2022-08-07T11:36:50.237Z,35.30
2022-08-07T11:40:00.061Z,34.60
2022-08-07T11:42:47.046Z,34.00
2022-08-07T11:45:35.615Z,35.00
2022-08-07T11:48:18.008Z,35.40
2022-08-07T11:51:41.607Z,36.50
2022-08-07T11:54:39.151Z,36.40
2022-08-07T11:57:16.890Z,36.70
2022-08-07T12:00:10.736Z,36.60
2022-08-07T12:03:41.820Z,35.90
2022-08-07T12:06:38.900Z,35.50
2022-08-07T12:09:31.719Z,35.70
2022-08-07T12:12:12.201Z,36.10
2022-08-07T12:14:51.459Z,36.70
2022-08-07T12:17:24.773Z,37.40
2022-08-07T12:20:04.737Z,37.40
2022-08-07T12:22:58.578Z,37.30
2022-08-07T12:26:22.835Z,35.90
2022-08-07T12:28:53.027Z,35.00
2022-08-07T12:31:52.532Z,33.20
2022-08-07T12:34:26.012Z,33.00
2022-08-07T12:36:54.641Z,32.50
2022-08-07T12:39:43.195Z,31.80
2022-08-07T12:42:13.142Z,31.30
2022-08-07T12:44:42.928Z,32.00
2022-08-07T12:47:27.084Z,33.70
2022-08-07T12:50:39.952Z,33.00
2022-08-07T12:53:22.394Z,34.20
2022-08-07T12:56:03.575Z,32.90
2022-08-07T12:58:39.296Z,32.60
2022-08-07T13:01:08.845Z,33.50
2022-08-07T13:04:02.990Z,32.00
2022-08-07T13:07:01.169Z,31.60
2022-08-07T13:10:28.515Z,32.60
2022-08-07T13:13:02.085Z,33.60
2022-08-07T13:15:39.552Z,31.20
2022-08-07T13:18:28.259Z,31.20
2022-08-07T13:21:13.899Z,33.20
2022-08-07T13:24:06.013Z,33.00
2022-08-07T13:26:46.831Z,33.00
2022-08-07T13:29:28.081Z,34.80
2022-08-07T13:32:35.195Z,33.90
2022-08-07T13:35:23.917Z,32.60
2022-08-07T13:38:38.034Z,30.30
2022-08-07T13:41:24.191Z,30.70
2022-08-07T13:43:57.381Z,31.30
2022-08-07T13:46:32.809Z,29.90
2022-08-07T13:49:01.559Z,30.80
2022-08-07T13:52:05.000Z,30.70
2022-08-07T13:54:22.686Z,32.00
2022-08-07T13:56:56.027Z,31.60
2022-08-07T13:59:32.610Z,31.80
2022-08-07T14:02:08.243Z,30.50
2022-08-07T14:04:47.467Z,31.60
2022-08-07T14:07:20.934Z,31.70
2022-08-07T14:10:02.605Z,30.60
2022-08-07T14:12:56.343Z,31.30
2022-08-07T14:15:42.421Z,32.50
2022-08-07T14:18:28.852Z,32.30
2022-08-07T14:21:08.343Z,33.70
2022-08-07T14:24:00.303Z,34.30
2022-08-07T14:26:51.518Z,33.70
2022-08-07T14:32:20.127Z,34.30
2022-08-07T14:34:52.491Z,34.80
2022-08-07T14:37:36.018Z,36.10
2022-08-07T14:40:15.700Z,36.00
2022-08-07T14:43:01.252Z,35.70
2022-08-07T14:45:46.606Z,35.60
2022-08-07T14:51:15.719Z,33.20
2022-08-07T14:54:08.640Z,31.30
2022-08-07T14:56:32.057Z,31.50
2022-08-07T14:59:13.830Z,30.60
2022-08-07T15:01:58.459Z,30.30
2022-08-07T15:04:25.898Z,29.70
2022-08-07T15:06:56.236Z,29.60
2022-08-07T15:09:57.781Z,28.90
2022-08-07T15:12:26.173Z,28.00
2022-08-07T15:15:09.125Z,28.00
2022-08-07T15:17:58.938Z,28.20
2022-08-07T15:20:35.821Z,27.80
2022-08-07T15:32:00.705Z,28.70
2022-08-07T15:35:04.070Z,28.50
2022-08-07T15:38:18.337Z,27.60
2022-08-07T15:43:53.390Z,27.40
2022-08-07T15:46:04.518Z,27.20
2022-08-07T15:49:11.894Z,27.50
2022-08-07T15:54:23.038Z,26.70
2022-08-07T15:56:50.608Z,26.60
2022-08-07T15:59:20.277Z,26.30
2022-08-07T16:02:08.512Z,25.80
2022-08-07T16:04:36.114Z,26.00
2022-08-07T16:08:32.438Z,25.80
2022-08-07T16:09:59.192Z,25.40
2022-08-07T16:12:40.874Z,25.80
2022-08-07T16:15:56.418Z,26.00
2022-08-07T16:18:50.380Z,26.40
2022-08-07T16:22:02.652Z,27.00
2022-08-07T16:24:35.639Z,26.10
2022-08-07T16:27:23.612Z,25.70
2022-08-07T16:30:30.659Z,25.80
2022-08-07T16:34:03.294Z,26.30
2022-08-07T16:36:19.760Z,26.30
2022-08-07T16:39:02.358Z,26.90
2022-08-07T16:41:41.238Z,26.90
2022-08-07T16:45:04.138Z,27.10
2022-08-07T16:47:53.095Z,26.80
2022-08-07T16:50:39.207Z,26.80
2022-08-07T16:54:06.132Z,27.00
2022-08-07T16:56:54.482Z,26.50
2022-08-07T16:59:46.003Z,27.00
2022-08-07T17:03:04.831Z,27.20
2022-08-07T17:06:29.000Z,27.70
2022-08-07T17:09:09.663Z,27.60
2022-08-07T17:12:01.939Z,27.30
2022-08-07T17:14:46.539Z,27.50
2022-08-07T17:17:46.120Z,27.60
2022-08-07T17:20:31.410Z,28.20
2022-08-07T17:23:20.791Z,27.70
2022-08-07T17:26:22.688Z,27.40
2022-08-07T17:29:06.155Z,27.40
2022-08-07T17:31:44.328Z,27.60
2022-08-07T17:34:43.562Z,27.50
2022-08-07T17:38:09.460Z,27.60
2022-08-07T17:40:36.663Z,27.50
2022-08-07T17:43:14.935Z,27.50
2022-08-07T17:45:55.499Z,27.10
2022-08-07T17:48:33.414Z,27.30
2022-08-07T17:51:06.986Z,27.30
2022-08-07T17:54:02.075Z,26.90
2022-08-07T17:56:49.708Z,27.40
2022-08-07T17:59:35.431Z,27.40
2022-08-07T18:02:29.358Z,26.90
2022-08-07T18:05:21.733Z,27.30
2022-08-07T18:08:24.176Z,27.40
2022-08-07T18:12:06.915Z,26.80
2022-08-07T18:13:54.685Z,26.70
2022-08-07T18:16:36.896Z,27.00
2022-08-07T18:21:09.923Z,27.30
2022-08-07T18:22:49.269Z,27.10
2022-08-07T18:25:40.318Z,27.50
2022-08-07T18:28:35.424Z,27.20
2022-08-07T18:31:18.351Z,27.10
2022-08-07T18:34:39.282Z,27.00
2022-08-07T18:38:56.754Z,26.90
2022-08-07T18:40:42.748Z,26.90
2022-08-07T18:43:17.852Z,26.80
2022-08-07T18:46:22.005Z,26.50
2022-08-07T18:50:30.243Z,26.00
2022-08-07T18:52:51.696Z,26.00
2022-08-07T18:55:41.110Z,26.30
2022-08-07T18:58:14.402Z,26.60
2022-08-07T19:01:01.781Z,26.70
2022-08-07T19:03:52.626Z,26.60
2022-08-07T19:07:10.042Z,26.20
2022-08-07T19:09:57.740Z,25.70
2022-08-07T19:12:58.128Z,25.40
2022-08-07T19:16:04.612Z,25.60
2022-08-07T19:18:48.388Z,25.50
2022-08-07T19:21:48.046Z,25.80
2022-08-07T19:24:43.460Z,26.00
2022-08-07T19:28:57.313Z,25.40
2022-08-07T19:31:00.765Z,25.50
2022-08-07T19:32:59.582Z,25.50
2022-08-07T19:35:33.360Z,25.10
2022-08-07T19:38:04.304Z,25.30
2022-08-07T19:40:50.027Z,25.40
2022-08-07T19:43:43.549Z,25.80
2022-08-07T19:46:26.698Z,25.80
2022-08-07T19:49:08.782Z,25.70
2022-08-07T19:51:51.376Z,25.60
2022-08-07T19:54:32.103Z,25.20
2022-08-07T19:58:04.126Z,25.30
2022-08-07T20:00:10.341Z,25.30
2022-08-07T20:03:01.027Z,25.10
2022-08-07T20:06:00.986Z,25.10
2022-08-07T20:08:29.239Z,24.70
2022-08-07T20:11:03.906Z,24.30
2022-08-07T20:13:47.766Z,24.50
2022-08-07T20:16:36.849Z,24.40
2022-08-07T20:19:10.415Z,24.20
2022-08-07T20:21:42.119Z,24.00
2022-08-07T20:24:32.609Z,24.20
2022-08-07T20:27:03.279Z,24.00
2022-08-07T20:29:48.965Z,23.40
2022-08-07T20:32:40.434Z,23.30
2022-08-07T20:35:11.095Z,23.20
2022-08-07T20:37:55.543Z,22.60
2022-08-07T20:40:34.635Z,22.50
2022-08-07T20:43:02.713Z,22.90
2022-08-07T20:46:25.606Z,23.20
2022-08-07T20:48:30.931Z,22.80
2022-08-07T20:51:09.505Z,23.10
2022-08-07T20:54:03.570Z,23.20
2022-08-07T20:56:28.877Z,22.70
2022-08-07T20:58:58.853Z,22.50
2022-08-07T21:01:36.569Z,23.20
2022-08-07T21:04:22.429Z,23.30
2022-08-07T21:06:53.657Z,23.60
2022-08-07T21:09:24.217Z,23.10
2022-08-07T21:11:55.677Z,22.50
2022-08-07T21:14:33.643Z,22.50
2022-08-07T21:18:04.020Z,22.90
2022-08-07T21:20:04.766Z,22.80
2022-08-07T21:22:34.592Z,22.50
2022-08-07T21:25:13.231Z,22.90
2022-08-07T21:28:02.070Z,23.20
2022-08-07T21:30:38.710Z,22.80
2022-08-07T21:33:20.489Z,22.40
2022-08-07T21:36:06.640Z,22.50
2022-08-07T21:38:44.726Z,22.70
2022-08-07T21:41:38.160Z,22.50
2022-08-07T21:44:28.371Z,22.60
2022-08-07T21:47:19.757Z,22.50
2022-08-07T21:50:02.507Z,22.20
2022-08-07T21:52:42.223Z,22.10
2022-08-07T21:55:19.515Z,22.10
2022-08-07T21:58:32.151Z,22.40
2022-08-07T22:01:13.783Z,22.30
2022-08-07T22:03:52.246Z,22.60
2022-08-07T22:06:31.505Z,22.60
2022-08-07T22:09:06.884Z,22.70
2022-08-07T22:12:04.800Z,22.60
2022-08-07T22:14:34.563Z,22.70
2022-08-07T22:17:04.224Z,22.80
2022-08-07T22:19:31.794Z,22.70
2022-08-07T22:22:17.723Z,22.40
2022-08-07T22:25:03.102Z,22.50
2022-08-07T22:28:08.371Z,22.40
2022-08-07T22:30:28.662Z,22.50
2022-08-07T22:33:09.284Z,22.40
2022-08-07T22:35:48.098Z,22.50
2022-08-07T22:38:47.989Z,22.10
2022-08-07T22:41:21.352Z,22.40
2022-08-07T22:44:03.485Z,22.40
2022-08-07T22:47:04.412Z,22.40
2022-08-07T22:49:51.679Z,22.00
2022-08-07T22:52:36.902Z,21.90
2022-08-07T22:55:30.208Z,21.80
2022-08-07T22:58:08.769Z,22.00
2022-08-07T23:00:46.172Z,22.00
2022-08-07T23:03:58.883Z,22.10
2022-08-07T23:06:34.991Z,21.80
2022-08-07T23:10:04.411Z,21.90
2022-08-07T23:12:34.411Z,21.90
2022-08-07T23:16:05.363Z,21.80
2022-08-07T23:18:42.427Z,21.90
2022-08-07T23:21:30.221Z,21.70
2022-08-07T23:24:24.821Z,21.70
2022-08-07T23:27:13.378Z,21.60
2022-08-07T23:30:38.282Z,21.60
2022-08-07T23:34:34.749Z,21.50
2022-08-07T23:36:29.774Z,21.40
2022-08-07T23:39:04.859Z,21.30
2022-08-07T23:42:04.236Z,21.30
2022-08-07T23:44:47.188Z,21.20
2022-08-07T23:47:42.281Z,21.00
2022-08-07T23:50:36.830Z,21.00
2022-08-07T23:53:51.012Z,21.00
2022-08-07T23:56:20.914Z,20.90
2022-08-07T23:59:10.460Z,20.90
